sensor_id;sensor_type;location;lat;lon;timestamp;pressure;altitude;pressure_sealevel;temperature;humidity
24230;BME280;12362;50.004;8.006;2022-11-30T00:00:51;101084.56;;;6.74;100.00
24230;BME280;12362;50.004;8.006;2022-11-30T00:03:17;101084.47;;;6.78;100.00
24230;BME280;12362;50.004;8.006;2022-11-30T00:05:42;101080.28;;;6.73;100.00
24230;BME280;12362;50.004;8.006;2022-11-30T00:08:07;101082.94;;;6.70;100.00
24230;BME280;12362;50.004;8.006;2022-11-30T00:10:33;101088.13;;;6.68;100.00
24230;BME280;12362;50.004;8.006;2022-11-30T00:12:58;101077.69;;;6.74;100.00
24230;BME280;12362;50.004;8.006;2022-11-30T00:15:24;101076.84;;;6.74;100.00
24230;BME280;12362;50.004;8.006;2022-11-30T00:17:54;101075.19;;;6.70;100.00
24230;BME280;12362;50.004;8.006;2022-11-30T00:20:35;101069.97;;;6.73;100.00
24230;BME280;12362;50.004;8.006;2022-11-30T00:23:00;101058.69;;;6.77;100.00
24230;BME280;12362;50.004;8.006;2022-11-30T00:25:26;101067.44;;;6.71;100.00
24230;BME280;12362;50.004;8.006;2022-11-30T00:27:51;101069.25;;;6.68;100.00
24230;BME280;12362;50.004;8.006;2022-11-30T00:30:17;101068.34;;;6.69;100.00
24230;BME280;12362;50.004;8.006;2022-11-30T00:32:42;101067.44;;;6.71;100.00
24230;BME280;12362;50.004;8.006;2022-11-30T00:35:08;101067.44;;;6.70;100.00
24230;BME280;12362;50.004;8.006;2022-11-30T00:37:34;101060.50;;;6.73;100.00
24230;BME280;12362;50.004;8.006;2022-11-30T00:39:59;101064.25;;;6.60;100.00
24230;BME280;12362;50.004;8.006;2022-11-30T00:42:24;101073.06;;;6.50;100.00
24230;BME280;12362;50.004;8.006;2022-11-30T00:44:50;101067.00;;;6.53;100.00
24230;BME280;12362;50.004;8.006;2022-11-30T00:47:15;101069.84;;;6.41;100.00
24230;BME280;12362;50.004;8.006;2022-11-30T00:49:40;101073.19;;;6.44;100.00
24230;BME280;12362;50.004;8.006;2022-11-30T00:52:06;101073.84;;;6.54;100.00
24230;BME280;12362;50.004;8.006;2022-11-30T00:54:32;101072.88;;;6.59;100.00
24230;BME280;12362;50.004;8.006;2022-11-30T00:56:57;101077.09;;;6.62;100.00
24230;BME280;12362;50.004;8.006;2022-11-30T00:59:23;101073.53;;;6.67;100.00
24230;BME280;12362;50.004;8.006;2022-11-30T01:01:48;101084.63;;;6.72;100.00
24230;BME280;12362;50.004;8.006;2022-11-30T01:04:13;101082.84;;;6.74;100.00
24230;BME280;12362;50.004;8.006;2022-11-30T01:06:39;101083.84;;;6.69;100.00
24230;BME280;12362;50.004;8.006;2022-11-30T01:09:04;101080.56;;;6.61;100.00
24230;BME280;12362;50.004;8.006;2022-11-30T01:11:30;101084.94;;;6.57;100.00
24230;BME280;12362;50.004;8.006;2022-11-30T01:13:58;101076.16;;;6.64;100.00
24230;BME280;12362;50.004;8.006;2022-11-30T01:16:26;101080.41;;;6.68;100.00
24230;BME280;12362;50.004;8.006;2022-11-30T01:18:52;101080.28;;;6.74;100.00
24230;BME280;12362;50.004;8.006;2022-11-30T01:21:21;101069.16;;;6.71;100.00
24230;BME280;12362;50.004;8.006;2022-11-30T01:23:47;101069.25;;;6.66;100.00
24230;BME280;12362;50.004;8.006;2022-11-30T01:26:13;101078.69;;;6.67;100.00
24230;BME280;12362;50.004;8.006;2022-11-30T01:28:39;101073.47;;;6.70;100.00
24230;BME280;12362;50.004;8.006;2022-11-30T01:31:07;101068.31;;;6.70;100.00
24230;BME280;12362;50.004;8.006;2022-11-30T01:33:33;101071.72;;;6.71;100.00
24230;BME280;12362;50.004;8.006;2022-11-30T01:36:08;101075.19;;;6.70;100.00
24230;BME280;12362;50.004;8.006;2022-11-30T01:38:40;101070.91;;;6.70;100.00
24230;BME280;12362;50.004;8.006;2022-11-30T01:41:08;101069.16;;;6.71;100.00
24230;BME280;12362;50.004;8.006;2022-11-30T01:43:46;101069.97;;;6.73;100.00
24230;BME280;12362;50.004;8.006;2022-11-30T01:54:15;101075.84;;;6.79;100.00
24230;BME280;12362;50.004;8.006;2022-11-30T01:56:54;101074.19;;;6.75;100.00
24230;BME280;12362;50.004;8.006;2022-11-30T01:59:21;101070.69;;;6.79;100.00
24230;BME280;12362;50.004;8.006;2022-11-30T02:01:48;101080.28;;;6.73;100.00
24230;BME280;12362;50.004;8.006;2022-11-30T02:06:46;101071.72;;;6.72;100.00
24230;BME280;12362;50.004;8.006;2022-11-30T02:09:12;101075.06;;;6.76;100.00
24230;BME280;12362;50.004;8.006;2022-11-30T02:11:39;101072.44;;;6.77;100.00
24230;BME280;12362;50.004;8.006;2022-11-30T02:22:03;101078.63;;;6.70;100.00
24230;BME280;12362;50.004;8.006;2022-11-30T02:34:49;101068.69;;;6.90;100.00
24230;BME280;12362;50.004;8.006;2022-11-30T02:37:17;101072.09;;;6.92;100.00
24230;BME280;12362;50.004;8.006;2022-11-30T02:39:43;101072.97;;;6.93;100.00
24230;BME280;12362;50.004;8.006;2022-11-30T02:42:10;101075.56;;;6.91;100.00
24230;BME280;12362;50.004;8.006;2022-11-30T02:44:37;101074.63;;;6.95;100.00
24230;BME280;12362;50.004;8.006;2022-11-30T02:50:31;101080.00;;;6.85;100.00
24230;BME280;12362;50.004;8.006;2022-11-30T02:52:58;101072.16;;;6.91;100.00
24230;BME280;12362;50.004;8.006;2022-11-30T02:55:24;101079.84;;;6.92;100.00
24230;BME280;12362;50.004;8.006;2022-11-30T02:57:49;101076.50;;;6.87;100.00
24230;BME280;12362;50.004;8.006;2022-11-30T03:00:15;101084.19;;;6.90;100.00
24230;BME280;12362;50.004;8.006;2022-11-30T03:02:41;101088.44;;;6.93;100.00
24230;BME280;12362;50.004;8.006;2022-11-30T03:05:07;101092.69;;;6.94;100.00
24230;BME280;12362;50.004;8.006;2022-11-30T03:07:33;101086.66;;;6.96;100.00
24230;BME280;12362;50.004;8.006;2022-11-30T03:09:59;101086.66;;;6.95;100.00
24230;BME280;12362;50.004;8.006;2022-11-30T03:12:25;101090.09;;;6.95;100.00
24230;BME280;12362;50.004;8.006;2022-11-30T03:14:50;101091.81;;;6.95;100.00
24230;BME280;12362;50.004;8.006;2022-11-30T03:17:16;101090.00;;;7.00;100.00
24230;BME280;12362;50.004;8.006;2022-11-30T03:19:41;101099.44;;;7.01;100.00
24230;BME280;12362;50.004;8.006;2022-11-30T03:22:06;101107.19;;;7.01;100.00
24230;BME280;12362;50.004;8.006;2022-11-30T03:24:32;101102.09;;;6.98;100.00
24230;BME280;12362;50.004;8.006;2022-11-30T03:26:57;101099.50;;;6.98;100.00
24230;BME280;12362;50.004;8.006;2022-11-30T03:29:23;101108.94;;;6.99;100.00
24230;BME280;12362;50.004;8.006;2022-11-30T03:31:48;101098.56;;;7.02;100.00
24230;BME280;12362;50.004;8.006;2022-11-30T03:34:13;101102.78;;;7.04;100.00
24230;BME280;12362;50.004;8.006;2022-11-30T03:36:39;101106.31;;;7.02;100.00
24230;BME280;12362;50.004;8.006;2022-11-30T03:39:04;101111.47;;;7.02;100.00
24230;BME280;12362;50.004;8.006;2022-11-30T03:41:29;101099.50;;;6.98;100.00
24230;BME280;12362;50.004;8.006;2022-11-30T03:43:55;101097.84;;;6.95;100.00
24230;BME280;12362;50.004;8.006;2022-11-30T03:46:20;101109.88;;;6.95;100.00
24230;BME280;12362;50.004;8.006;2022-11-30T03:48:46;101105.66;;;6.92;100.00
24230;BME280;12362;50.004;8.006;2022-11-30T03:51:12;101101.25;;;6.97;100.00
24230;BME280;12362;50.004;8.006;2022-11-30T03:53:37;101106.38;;;6.99;100.00
24230;BME280;12362;50.004;8.006;2022-11-30T03:56:06;101105.44;;;7.01;100.00
24230;BME280;12362;50.004;8.006;2022-11-30T03:58:32;101100.25;;;7.03;100.00
24230;BME280;12362;50.004;8.006;2022-11-30T04:01:10;101103.53;;;7.09;100.00
24230;BME280;12362;50.004;8.006;2022-11-30T04:03:36;101099.22;;;7.10;100.00
24230;BME280;12362;50.004;8.006;2022-11-30T04:06:02;101096.63;;;7.10;100.00
24230;BME280;12362;50.004;8.006;2022-11-30T04:08:28;101104.50;;;7.05;100.00
24230;BME280;12362;50.004;8.006;2022-11-30T04:10:55;101102.91;;;7.00;100.00
24230;BME280;12362;50.004;8.006;2022-11-30T04:13:22;101095.09;;;7.03;100.00
24230;BME280;12362;50.004;8.006;2022-11-30T04:15:49;101100.16;;;7.07;100.00
24230;BME280;12362;50.004;8.006;2022-11-30T04:18:16;101100.16;;;7.07;100.00
24230;BME280;12362;50.004;8.006;2022-11-30T04:20:43;101100.09;;;7.09;100.00
24230;BME280;12362;50.004;8.006;2022-11-30T04:23:09;101097.56;;;7.07;100.00
24230;BME280;12362;50.004;8.006;2022-11-30T04:25:39;101098.63;;;6.99;100.00
24230;BME280;12362;50.004;8.006;2022-11-30T04:28:05;101102.84;;;7.01;100.00
24230;BME280;12362;50.004;8.006;2022-11-30T04:30:32;101101.84;;;7.08;100.00
24230;BME280;12362;50.004;8.006;2022-11-30T04:32:57;101098.34;;;7.11;100.00
24230;BME280;12362;50.004;8.006;2022-11-30T04:35:23;101100.28;;;7.01;100.00
24230;BME280;12362;50.004;8.006;2022-11-30T04:37:48;101092.63;;;6.97;100.00
24230;BME280;12362;50.004;8.006;2022-11-30T04:40:14;101101.19;;;6.99;100.00
24230;BME280;12362;50.004;8.006;2022-11-30T04:42:39;101110.53;;;7.04;100.00
24230;BME280;12362;50.004;8.006;2022-11-30T04:45:06;101096.63;;;7.10;100.00
24230;BME280;12362;50.004;8.006;2022-11-30T04:47:31;101102.84;;;7.01;100.00
24230;BME280;12362;50.004;8.006;2022-11-30T04:50:07;101111.47;;;7.00;100.00
24230;BME280;12362;50.004;8.006;2022-11-30T04:52:33;101113.16;;;7.03;100.00
24230;BME280;12362;50.004;8.006;2022-11-30T04:54:58;101107.00;;;7.08;100.00
24230;BME280;12362;50.004;8.006;2022-11-30T04:57:24;101106.13;;;7.09;100.00
24230;BME280;12362;50.004;8.006;2022-11-30T04:59:49;101111.31;;;7.08;100.00
24230;BME280;12362;50.004;8.006;2022-11-30T05:02:15;101111.47;;;7.02;100.00
24230;BME280;12362;50.004;8.006;2022-11-30T05:04:40;101111.41;;;7.03;100.00
24230;BME280;12362;50.004;8.006;2022-11-30T05:07:06;101123.38;;;7.07;100.00
24230;BME280;12362;50.004;8.006;2022-11-30T05:09:32;101117.22;;;7.13;100.00
24230;BME280;12362;50.004;8.006;2022-11-30T05:11:57;101112.13;;;7.10;100.00
24230;BME280;12362;50.004;8.006;2022-11-30T05:14:23;101110.47;;;7.07;100.00
24230;BME280;12362;50.004;8.006;2022-11-30T05:16:48;101108.72;;;7.09;100.00
24230;BME280;12362;50.004;8.006;2022-11-30T05:19:14;101106.16;;;7.08;100.00
24230;BME280;12362;50.004;8.006;2022-11-30T05:21:41;101107.81;;;7.10;100.00
24230;BME280;12362;50.004;8.006;2022-11-30T05:24:06;101111.31;;;7.08;100.00
24230;BME280;12362;50.004;8.006;2022-11-30T05:26:36;101110.50;;;7.06;100.00
24230;BME280;12362;50.004;8.006;2022-11-30T05:29:03;101117.34;;;7.08;100.00
24230;BME280;12362;50.004;8.006;2022-11-30T05:31:28;101119.13;;;7.05;100.00
24230;BME280;12362;50.004;8.006;2022-11-30T05:33:54;101112.19;;;7.07;100.00
24230;BME280;12362;50.004;8.006;2022-11-30T05:36:20;101113.78;;;7.12;100.00
24230;BME280;12362;50.004;8.006;2022-11-30T05:38:45;101116.34;;;7.12;100.00
24230;BME280;12362;50.004;8.006;2022-11-30T05:41:11;101114.66;;;7.11;100.00
24230;BME280;12362;50.004;8.006;2022-11-30T05:43:36;101112.94;;;7.12;100.00
24230;BME280;12362;50.004;8.006;2022-11-30T05:46:04;101125.91;;;7.09;100.00
24230;BME280;12362;50.004;8.006;2022-11-30T05:48:30;101116.41;;;7.11;100.00
24230;BME280;12362;50.004;8.006;2022-11-30T05:51:10;101117.06;;;7.20;100.00
24230;BME280;12362;50.004;8.006;2022-11-30T05:53:35;101121.50;;;7.14;100.00
24230;BME280;12362;50.004;8.006;2022-11-30T05:56:06;101131.03;;;7.12;100.00
24230;BME280;12362;50.004;8.006;2022-11-30T05:58:32;101127.34;;;7.21;100.00
24230;BME280;12362;50.004;8.006;2022-11-30T06:00:58;101130.66;;;7.26;100.00
24230;BME280;12362;50.004;8.006;2022-11-30T06:03:23;101128.03;;;7.28;100.00
24230;BME280;12362;50.004;8.006;2022-11-30T06:05:50;101129.78;;;7.27;100.00
24230;BME280;12362;50.004;8.006;2022-11-30T06:08:16;101128.97;;;7.25;100.00
24230;BME280;12362;50.004;8.006;2022-11-30T06:10:41;101131.56;;;7.24;100.00
24230;BME280;12362;50.004;8.006;2022-11-30T06:13:07;101144.59;;;7.19;100.00
24230;BME280;12362;50.004;8.006;2022-11-30T06:15:35;101145.59;;;7.14;100.00
24230;BME280;12362;50.004;8.006;2022-11-30T06:18:01;101142.94;;;7.17;100.00
24230;BME280;12362;50.004;8.006;2022-11-30T06:20:26;101138.47;;;7.23;100.00
24230;BME280;12362;50.004;8.006;2022-11-30T06:22:51;101134.94;;;7.27;100.00
24230;BME280;12362;50.004;8.006;2022-11-30T06:25:17;101140.06;;;7.29;100.00
24230;BME280;12362;50.004;8.006;2022-11-30T06:27:42;101139.91;;;7.35;100.00
24230;BME280;12362;50.004;8.006;2022-11-30T06:30:08;101138.25;;;7.32;100.00
24230;BME280;12362;50.004;8.006;2022-11-30T06:32:34;101136.59;;;7.30;100.00
24230;BME280;12362;50.004;8.006;2022-11-30T06:35:00;101138.31;;;7.29;100.00
24230;BME280;12362;50.004;8.006;2022-11-30T06:37:25;101133.13;;;7.31;100.00
24230;BME280;12362;50.004;8.006;2022-11-30T06:39:51;101141.78;;;7.30;100.00
24230;BME280;12362;50.004;8.006;2022-11-30T06:42:17;101143.50;;;7.29;100.00
24230;BME280;12362;50.004;8.006;2022-11-30T06:44:44;101148.88;;;7.22;100.00
24230;BME280;12362;50.004;8.006;2022-11-30T06:47:10;101153.16;;;7.21;100.00
24230;BME280;12362;50.004;8.006;2022-11-30T06:49:35;101156.50;;;7.25;100.00
24230;BME280;12362;50.004;8.006;2022-11-30T06:52:01;101149.53;;;7.30;100.00
24230;BME280;12362;50.004;8.006;2022-11-30T06:54:26;101157.28;;;7.30;100.00
24230;BME280;12362;50.004;8.006;2022-11-30T06:56:54;101157.41;;;7.24;100.00
24230;BME280;12362;50.004;8.006;2022-11-30T07:00:30;101157.41;;;7.24;100.00
24230;BME280;12362;50.004;8.006;2022-11-30T07:02:51;101161.56;;;7.29;100.00
24230;BME280;12362;50.004;8.006;2022-11-30T07:05:17;101163.16;;;7.35;100.00
24230;BME280;12362;50.004;8.006;2022-11-30T07:07:43;101163.09;;;7.38;100.00
24230;BME280;12362;50.004;8.006;2022-11-30T07:10:08;101160.50;;;7.39;100.00
24230;BME280;12362;50.004;8.006;2022-11-30T07:12:34;101164.75;;;7.40;100.00
24230;BME280;12362;50.004;8.006;2022-11-30T07:15:00;101163.03;;;7.41;100.00
24230;BME280;12362;50.004;8.006;2022-11-30T07:17:26;101168.97;;;7.44;100.00
24230;BME280;12362;50.004;8.006;2022-11-30T07:19:51;101168.97;;;7.44;100.00
24230;BME280;12362;50.004;8.006;2022-11-30T07:22:17;101168.94;;;7.46;100.00
24230;BME280;12362;50.004;8.006;2022-11-30T07:24:42;101168.03;;;7.48;100.00
24230;BME280;12362;50.004;8.006;2022-11-30T07:27:26;101161.88;;;7.52;100.00
24230;BME280;12362;50.004;8.006;2022-11-30T07:29:52;101160.09;;;7.54;100.00
24230;BME280;12362;50.004;8.006;2022-11-30T07:32:20;101164.44;;;7.54;100.00
24230;BME280;12362;50.004;8.006;2022-11-30T07:34:46;101164.31;;;7.58;100.00
24230;BME280;12362;50.004;8.006;2022-11-30T07:37:11;101171.19;;;7.59;100.00
24230;BME280;12362;50.004;8.006;2022-11-30T07:39:37;101165.97;;;7.61;100.00
24230;BME280;12362;50.004;8.006;2022-11-30T07:42:03;101162.50;;;7.62;100.00
24230;BME280;12362;50.004;8.006;2022-11-30T07:44:28;101176.28;;;7.62;100.00
24230;BME280;12362;50.004;8.006;2022-11-30T07:46:54;101171.81;;;7.69;100.00
24230;BME280;12362;50.004;8.006;2022-11-30T07:52:41;101168.69;;;7.90;100.00
24230;BME280;12362;50.004;8.006;2022-11-30T07:55:07;101167.69;;;7.95;100.00
24230;BME280;12362;50.004;8.006;2022-11-30T07:57:33;101170.03;;;8.04;100.00
24230;BME280;12362;50.004;8.006;2022-11-30T07:59:59;101174.06;;;8.15;100.00
24230;BME280;12362;50.004;8.006;2022-11-30T08:02:32;101175.66;;;8.21;100.00
24230;BME280;12362;50.004;8.006;2022-11-30T08:05:01;101179.69;;;8.29;100.00
24230;BME280;12362;50.004;8.006;2022-11-30T08:07:26;101176.09;;;8.35;100.00
24230;BME280;12362;50.004;8.006;2022-11-30T08:09:52;101176.75;;;8.43;100.00
24230;BME280;12362;50.004;8.006;2022-11-30T08:12:17;101181.19;;;8.39;100.00
24230;BME280;12362;50.004;8.006;2022-11-30T08:14:43;101178.59;;;8.38;100.00
24230;BME280;12362;50.004;8.006;2022-11-30T08:17:08;101180.84;;;8.50;100.00
24230;BME280;12362;50.004;8.006;2022-11-30T08:19:33;101181.63;;;8.53;100.00
24230;BME280;12362;50.004;8.006;2022-11-30T08:21:59;101180.56;;;8.60;100.00
24230;BME280;12362;50.004;8.006;2022-11-30T08:24:24;101179.91;;;8.54;100.00
24230;BME280;12362;50.004;8.006;2022-11-30T08:26:51;101182.44;;;8.55;100.00
24230;BME280;12362;50.004;8.006;2022-11-30T08:29:17;101176.28;;;8.59;100.00
24230;BME280;12362;50.004;8.006;2022-11-30T08:31:42;101183.91;;;8.64;100.00
24230;BME280;12362;50.004;8.006;2022-11-30T08:34:12;101184.44;;;8.76;100.00
24230;BME280;12362;50.004;8.006;2022-11-30T08:36:39;101188.53;;;8.83;100.00
24230;BME280;12362;50.004;8.006;2022-11-30T08:39:06;101179.72;;;8.89;100.00
24230;BME280;12362;50.004;8.006;2022-11-30T08:41:33;101184.69;;;8.96;100.00
24230;BME280;12362;50.004;8.006;2022-11-30T08:43:59;101179.75;;;9.16;100.00
24230;BME280;12362;50.004;8.006;2022-11-30T08:46:25;101184.69;;;9.23;100.00
24230;BME280;12362;50.004;8.006;2022-11-30T08:48:51;101185.31;;;9.31;100.00
24230;BME280;12362;50.004;8.006;2022-11-30T08:51:18;101181.88;;;9.31;100.00
24230;BME280;12362;50.004;8.006;2022-11-30T08:53:45;101192.94;;;9.08;100.00
24230;BME280;12362;50.004;8.006;2022-11-30T08:56:20;101191.38;;;9.03;100.00
24230;BME280;12362;50.004;8.006;2022-11-30T08:58:48;101186.84;;;9.09;100.00
24230;BME280;12362;50.004;8.006;2022-11-30T09:01:16;101192.13;;;9.06;100.00
24230;BME280;12362;50.004;8.006;2022-11-30T09:03:43;101193.34;;;8.95;100.00
24230;BME280;12362;50.004;8.006;2022-11-30T09:06:11;101190.91;;;8.89;100.00
24230;BME280;12362;50.004;8.006;2022-11-30T09:08:38;101195.63;;;9.05;100.00
24230;BME280;12362;50.004;8.006;2022-11-30T09:13:40;101200.63;;;9.11;100.00
24230;BME280;12362;50.004;8.006;2022-11-30T09:16:06;101209.63;;;9.27;100.00
24230;BME280;12362;50.004;8.006;2022-11-30T09:18:32;101204.00;;;9.41;100.00
24230;BME280;12362;50.004;8.006;2022-11-30T09:21:02;101211.19;;;9.33;100.00
24230;BME280;12362;50.004;8.006;2022-11-30T09:23:29;101201.94;;;9.52;100.00
24230;BME280;12362;50.004;8.006;2022-11-30T09:25:58;101212.38;;;9.50;100.00
24230;BME280;12362;50.004;8.006;2022-11-30T09:28:24;101200.84;;;9.59;100.00
24230;BME280;12362;50.004;8.006;2022-11-30T09:30:50;101212.22;;;9.55;100.00
24230;BME280;12362;50.004;8.006;2022-11-30T09:33:19;101216.03;;;9.43;100.00
24230;BME280;12362;50.004;8.006;2022-11-30T09:35:54;101211.72;;;9.44;100.00
24230;BME280;12362;50.004;8.006;2022-11-30T09:38:19;101210.66;;;9.49;100.00
24230;BME280;12362;50.004;8.006;2022-11-30T09:40:45;101201.91;;;9.53;100.00
24230;BME280;12362;50.004;8.006;2022-11-30T09:45:58;101204.81;;;9.43;100.00
24230;BME280;12362;50.004;8.006;2022-11-30T09:48:48;101208.22;;;9.45;100.00
24230;BME280;12362;50.004;8.006;2022-11-30T09:51:29;101209.28;;;9.38;100.00
24230;BME280;12362;50.004;8.006;2022-11-30T09:53:58;101208.75;;;9.28;100.00
24230;BME280;12362;50.004;8.006;2022-11-30T09:56:35;101208.03;;;9.23;100.00
24230;BME280;12362;50.004;8.006;2022-11-30T09:59:19;101202.47;;;9.35;100.00
24230;BME280;12362;50.004;8.006;2022-11-30T10:01:46;101196.91;;;9.47;100.00
24230;BME280;12362;50.004;8.006;2022-11-30T10:04:26;101192.22;;;9.58;100.00
24230;BME280;12362;50.004;8.006;2022-11-30T10:07:08;101189.81;;;9.78;100.00
24230;BME280;12362;50.004;8.006;2022-11-30T10:09:47;101190.72;;;10.03;100.00
24230;BME280;12362;50.004;8.006;2022-11-30T10:12:31;101191.50;;;10.31;100.00
24230;BME280;12362;50.004;8.006;2022-11-30T10:24:17;101178.84;;;11.13;100.00
24230;BME280;12362;50.004;8.006;2022-11-30T10:26:54;101175.41;;;11.34;100.00
24230;BME280;12362;50.004;8.006;2022-11-30T10:29:30;101166.22;;;11.26;100.00
24230;BME280;12362;50.004;8.006;2022-11-30T10:31:58;101160.53;;;11.38;100.00
24230;BME280;12362;50.004;8.006;2022-11-30T10:34:30;101159.41;;;11.23;100.00
24230;BME280;12362;50.004;8.006;2022-11-30T10:37:18;101159.84;;;11.13;100.00
24230;BME280;12362;50.004;8.006;2022-11-30T10:42:30;101158.50;;;10.57;100.00
24230;BME280;12362;50.004;8.006;2022-11-30T10:45:02;101160.16;;;10.60;100.00
24230;BME280;12362;50.004;8.006;2022-11-30T10:47:32;101158.03;;;10.69;100.00
24230;BME280;12362;50.004;8.006;2022-11-30T10:50:16;101152.41;;;10.58;100.00
24230;BME280;12362;50.004;8.006;2022-11-30T10:52:51;101154.28;;;10.55;100.00
24230;BME280;12362;50.004;8.006;2022-11-30T10:55:20;101153.84;;;10.42;100.00
24230;BME280;12362;50.004;8.006;2022-11-30T10:57:48;101151.84;;;10.50;100.00
24230;BME280;12362;50.004;8.006;2022-11-30T11:00:15;101150.97;;;10.50;100.00
24230;BME280;12362;50.004;8.006;2022-11-30T11:02:47;101153.53;;;10.51;100.00
24230;BME280;12362;50.004;8.006;2022-11-30T11:13:04;101149.09;;;10.30;100.00
24230;BME280;12362;50.004;8.006;2022-11-30T11:15:32;101151.84;;;10.26;100.00
24230;BME280;12362;50.004;8.006;2022-11-30T11:18:25;101148.50;;;10.24;100.00
24230;BME280;12362;50.004;8.006;2022-11-30T11:23:29;101139.38;;;10.12;100.00
24230;BME280;12362;50.004;8.006;2022-11-30T11:25:57;101143.78;;;10.10;100.00
24230;BME280;12362;50.004;8.006;2022-11-30T11:28:23;101140.75;;;10.22;100.00
24230;BME280;12362;50.004;8.006;2022-11-30T11:30:54;101136.34;;;10.24;100.00
24230;BME280;12362;50.004;8.006;2022-11-30T11:33:25;101144.25;;;10.21;100.00
24230;BME280;12362;50.004;8.006;2022-11-30T11:35:54;101145.94;;;10.22;100.00
24230;BME280;12362;50.004;8.006;2022-11-30T11:38:48;101141.66;;;10.21;100.00
24230;BME280;12362;50.004;8.006;2022-11-30T11:44:18;101145.56;;;10.33;100.00
24230;BME280;12362;50.004;8.006;2022-11-30T11:46:56;101145.50;;;10.34;100.00
24230;BME280;12362;50.004;8.006;2022-11-30T11:49:30;101145.34;;;10.39;100.00
24230;BME280;12362;50.004;8.006;2022-11-30T11:52:15;101142.38;;;10.49;100.00
24230;BME280;12362;50.004;8.006;2022-11-30T11:54:55;101153.53;;;10.28;100.00
24230;BME280;12362;50.004;8.006;2022-11-30T11:57:47;101148.78;;;10.39;100.00
24230;BME280;12362;50.004;8.006;2022-11-30T12:05:49;101141.00;;;10.62;100.00
24230;BME280;12362;50.004;8.006;2022-11-30T12:13:42;101140.09;;;10.40;100.00
24230;BME280;12362;50.004;8.006;2022-11-30T12:18:47;101138.75;;;10.53;100.00
24230;BME280;12362;50.004;8.006;2022-11-30T12:21:19;101133.41;;;10.58;100.00
24230;BME280;12362;50.004;8.006;2022-11-30T12:23:57;101129.38;;;10.49;100.00
24230;BME280;12362;50.004;8.006;2022-11-30T12:26:36;101132.06;;;10.46;100.00
24230;BME280;12362;50.004;8.006;2022-11-30T12:34:50;101134.06;;;10.40;100.00
24230;BME280;12362;50.004;8.006;2022-11-30T12:37:44;101127.16;;;10.39;100.00
24230;BME280;12362;50.004;8.006;2022-11-30T12:40:34;101131.53;;;10.38;100.00
24230;BME280;12362;50.004;8.006;2022-11-30T12:43:24;101120.91;;;10.44;100.00
24230;BME280;12362;50.004;8.006;2022-11-30T12:46:20;101124.41;;;10.43;100.00
24230;BME280;12362;50.004;8.006;2022-11-30T12:51:50;101127.66;;;10.25;100.00
24230;BME280;12362;50.004;8.006;2022-11-30T12:54:38;101126.69;;;10.28;100.00
24230;BME280;12362;50.004;8.006;2022-11-30T12:57:22;101127.56;;;10.28;100.00
24230;BME280;12362;50.004;8.006;2022-11-30T13:00:06;101133.53;;;10.30;100.00
24230;BME280;12362;50.004;8.006;2022-11-30T13:02:45;101133.50;;;10.32;100.00
24230;BME280;12362;50.004;8.006;2022-11-30T13:05:19;101133.28;;;10.13;100.00
24230;BME280;12362;50.004;8.006;2022-11-30T13:07:53;101125.28;;;10.19;100.00
24230;BME280;12362;50.004;8.006;2022-11-30T13:10:38;101125.34;;;10.18;100.00
24230;BME280;12362;50.004;8.006;2022-11-30T13:13:16;101120.09;;;10.19;100.00
24230;BME280;12362;50.004;8.006;2022-11-30T13:15:49;101120.25;;;10.15;100.00
24230;BME280;12362;50.004;8.006;2022-11-30T13:18:17;101121.84;;;10.19;100.00
24230;BME280;12362;50.004;8.006;2022-11-30T13:20:58;101121.94;;;10.16;100.00
24230;BME280;12362;50.004;8.006;2022-11-30T13:31:47;101125.03;;;10.02;100.00
24230;BME280;12362;50.004;8.006;2022-11-30T13:34:24;101128.53;;;10.01;100.00
24230;BME280;12362;50.004;8.006;2022-11-30T13:36:50;101125.16;;;9.98;100.00
24230;BME280;12362;50.004;8.006;2022-11-30T13:44:35;101120.88;;;9.97;100.00
24230;BME280;12362;50.004;8.006;2022-11-30T13:47:04;101118.38;;;9.94;100.00
24230;BME280;12362;50.004;8.006;2022-11-30T13:49:38;101119.25;;;9.94;100.00
24230;BME280;12362;50.004;8.006;2022-11-30T13:52:04;101125.28;;;9.95;100.00
24230;BME280;12362;50.004;8.006;2022-11-30T13:54:47;101125.03;;;10.02;100.00
24230;BME280;12362;50.004;8.006;2022-11-30T13:59:52;101126.97;;;9.96;100.00
24230;BME280;12362;50.004;8.006;2022-11-30T14:07:39;101130.13;;;10.05;100.00
24230;BME280;12362;50.004;8.006;2022-11-30T14:20:49;101135.09;;;10.11;100.00
24230;BME280;12362;50.004;8.006;2022-11-30T14:26:03;101144.22;;;9.97;100.00
24230;BME280;12362;50.004;8.006;2022-11-30T14:28:39;101142.94;;;10.10;100.00
24230;BME280;12362;50.004;8.006;2022-11-30T14:31:11;101139.19;;;10.18;100.00
24230;BME280;12362;50.004;8.006;2022-11-30T14:33:47;101147.50;;;10.03;100.00
24230;BME280;12362;50.004;8.006;2022-11-30T14:36:13;101151.09;;;9.99;100.00
24230;BME280;12362;50.004;8.006;2022-11-30T14:38:40;101151.16;;;9.96;100.00
24230;BME280;12362;50.004;8.006;2022-11-30T14:41:18;101148.38;;;10.02;100.00
24230;BME280;12362;50.004;8.006;2022-11-30T14:44:11;101151.94;;;10.00;100.00
24230;BME280;12362;50.004;8.006;2022-11-30T14:46:38;101149.03;;;9.83;100.00
24230;BME280;12362;50.004;8.006;2022-11-30T14:51:52;101153.56;;;9.77;100.00
24230;BME280;12362;50.004;8.006;2022-11-30T14:57:30;101157.06;;;9.76;100.00
24230;BME280;12362;50.004;8.006;2022-11-30T14:59:58;101160.56;;;9.75;100.00
24230;BME280;12362;50.004;8.006;2022-11-30T15:02:31;101167.53;;;9.73;100.00
24230;BME280;12362;50.004;8.006;2022-11-30T15:05:04;101165.97;;;9.67;100.00
24230;BME280;12362;50.004;8.006;2022-11-30T15:07:31;101156.81;;;9.57;100.00